Time;durP1;ratioP1;P1;durP2;ratioP2;P2;SDS_P1;SDS_P2;PMS_P1;PMS_P2;Temp;Humidity;BMP_temperature;BMP_pressure;BME280_temperature;BME280_humidity;BME280_pressure;Samples;Min_cycle;Max_cycle;Signal;HPM_P1;HPM_P2
2022/05/23 00:01:21;;;;;;;;;;;;;;;17.77;51.24;100141.69;5101837;28;19919;-84
2022/05/23 00:03:46;;;;;;;;;;;;;;;17.75;51.55;100137.47;5098738;27;19927;-84
2022/05/23 00:06:13;;;;;;;;;;;;;;;17.72;51.64;100141.47;5122627;28;19967;-84
2022/05/23 00:08:40;;;;;;;;;;;;;;;17.64;52.08;100137.16;5114587;27;19942;-84
2022/05/23 00:11:06;;;;;;;;;;;;;;;17.67;52.05;100133.97;5106961;27;19915;-86
2022/05/23 00:13:31;;;;;;;;;;;;;;;17.49;52.80;100134.75;5132624;27;19926;-85
2022/05/23 00:15:58;;;;;;;;;;;;;;;17.55;52.71;100133.03;5124101;28;20351;-83
2022/05/23 00:18:26;;;;;;;;;;;;;;;17.50;52.96;100133.69;5113178;27;20326;-86
2022/05/23 00:20:52;;;;;;;;;;;;;;;17.57;53.33;100130.94;5121909;27;20341;-85
2022/05/23 00:23:17;;;;;;;;;;;;;;;17.54;53.88;100146.84;5133935;27;19984;-85
2022/05/23 00:25:42;;;;;;;;;;;;;;;17.56;53.90;100152.88;5121192;27;20279;-86
2022/05/23 00:28:10;;;;;;;;;;;;;;;17.58;54.91;100150.78;5152328;27;19919;-84
2022/05/23 00:30:35;;;;;;;;;;;;;;;17.49;55.52;100155.66;5126247;27;20385;-84
2022/05/23 00:35:55;;;;;;;;;;;;;;;17.50;57.07;100154.59;5037361;28;20011;-84
2022/05/23 00:38:21;;;;;;;;;;;;;;;17.49;57.69;100150.22;5095997;28;20399;-84
2022/05/23 00:43:52;;;;;;;;;;;;;;;17.36;59.83;100150.31;5148869;27;19927;-85
2022/05/23 00:46:17;;;;;;;;;;;;;;;17.41;59.77;100150.47;5098614;28;20240;-84
2022/05/23 00:48:43;;;;;;;;;;;;;;;17.45;59.34;100149.00;5130376;27;19927;-85
2022/05/23 00:51:12;;;;;;;;;;;;;;;17.40;59.48;100149.66;5102805;28;20463;-85
2022/05/23 00:53:42;;;;;;;;;;;;;;;17.40;59.52;100152.38;5096807;27;19916;-86
2022/05/23 00:56:08;;;;;;;;;;;;;;;17.41;59.20;100154.03;5119565;27;19930;-85
2022/05/23 00:58:36;;;;;;;;;;;;;;;17.44;58.97;100147.31;5168204;27;19982;-86
2022/05/23 01:01:02;;;;;;;;;;;;;;;17.39;59.30;100150.69;5108680;27;20483;-86
2022/05/23 01:03:27;;;;;;;;;;;;;;;17.29;59.29;100158.50;5140615;27;19969;-83
2022/05/23 01:05:54;;;;;;;;;;;;;;;17.30;59.21;100157.41;5120001;28;19916;-86
2022/05/23 01:08:21;;;;;;;;;;;;;;;17.34;58.67;100160.56;5086078;28;20384;-85
2022/05/23 01:10:47;;;;;;;;;;;;;;;17.26;58.35;100161.66;5157104;27;19907;-85
2022/05/23 01:13:12;;;;;;;;;;;;;;;17.15;57.98;100159.59;5137862;27;19976;-85
2022/05/23 01:15:43;;;;;;;;;;;;;;;17.16;57.64;100164.84;5120476;27;19956;-86
2022/05/23 01:18:08;;;;;;;;;;;;;;;16.90;57.22;100173.06;5155681;27;19964;-83
2022/05/23 01:20:33;;;;;;;;;;;;;;;16.95;57.09;100171.41;5148119;27;19923;-86
2022/05/23 01:23:31;;;;;;;;;;;;;;;16.92;56.35;100169.09;5116598;27;19915;-85
2022/05/23 01:25:57;;;;;;;;;;;;;;;16.88;56.13;100167.88;5093140;27;19919;-84
2022/05/23 01:28:22;;;;;;;;;;;;;;;16.87;55.81;100160.75;5126569;27;19961;-86
2022/05/23 01:30:47;;;;;;;;;;;;;;;16.81;56.46;100164.31;5106801;27;19930;-85
2022/05/23 01:33:13;;;;;;;;;;;;;;;16.75;56.58;100159.72;5136542;27;20363;-85
2022/05/23 01:35:38;;;;;;;;;;;;;;;16.66;57.08;100161.84;5128264;27;19954;-84
2022/05/23 01:38:04;;;;;;;;;;;;;;;16.46;58.07;100151.06;5116125;27;20015;-85
2022/05/23 01:40:29;;;;;;;;;;;;;;;16.48;57.95;100148.94;5139870;27;20118;-85
2022/05/23 01:42:55;;;;;;;;;;;;;;;16.39;58.29;100145.63;5137096;27;20284;-85
2022/05/23 01:45:25;;;;;;;;;;;;;;;16.48;57.92;100148.94;5131026;27;20403;-85
2022/05/23 01:47:50;;;;;;;;;;;;;;;16.46;57.68;100142.91;5103654;28;19922;-85
2022/05/23 01:50:15;;;;;;;;;;;;;;;16.45;57.61;100149.38;5134588;27;19923;-84
2022/05/23 01:52:43;;;;;;;;;;;;;;;16.42;57.53;100150.63;5149541;27;19919;-83
2022/05/23 01:55:08;;;;;;;;;;;;;;;16.18;58.45;100160.25;5125867;27;19963;-85
2022/05/23 01:57:34;;;;;;;;;;;;;;;16.27;58.06;100162.75;5119904;27;19938;-85
2022/05/23 02:02:47;;;;;;;;;;;;;;;16.32;58.10;100187.34;5119955;27;19926;-85
2022/05/23 02:05:14;;;;;;;;;;;;;;;16.23;58.31;100189.47;5111092;27;19915;-84
2022/05/23 02:07:39;;;;;;;;;;;;;;;16.25;58.45;100198.22;5097132;28;20272;-84
2022/05/23 02:10:04;;;;;;;;;;;;;;;16.27;58.34;100179.84;5112293;27;19915;-85
2022/05/23 02:12:30;;;;;;;;;;;;;;;16.19;58.30;100183.63;5097378;27;19968;-84
2022/05/23 02:14:55;;;;;;;;;;;;;;;16.01;58.68;100165.28;5122654;27;19926;-85
2022/05/23 02:17:21;;;;;;;;;;;;;;;15.71;58.81;100164.84;5123384;27;19976;-85
2022/05/23 02:19:47;;;;;;;;;;;;;;;15.19;60.73;100145.53;5120402;27;19919;-85
2022/05/23 02:22:13;;;;;;;;;;;;;;;15.00;60.90;100146.28;5149637;27;19923;-85
2022/05/23 02:24:44;;;;;;;;;;;;;;;15.23;60.65;100151.34;5147200;27;19984;-85
2022/05/23 02:27:10;;;;;;;;;;;;;;;15.11;61.12;100144.88;5120953;27;19957;-86
2022/05/23 02:29:35;;;;;;;;;;;;;;;15.15;61.07;100144.25;5101808;27;20034;-85
2022/05/23 02:32:00;;;;;;;;;;;;;;;15.18;61.24;100145.72;5118083;27;19915;-86
2022/05/23 02:34:26;;;;;;;;;;;;;;;15.14;61.40;100147.16;5108268;27;19919;-85
2022/05/23 02:36:52;;;;;;;;;;;;;;;15.19;61.32;100156.38;5123590;27;20376;-85
2022/05/23 02:39:17;;;;;;;;;;;;;;;15.19;62.19;100163.63;5138062;27;19935;-85
2022/05/23 02:41:43;;;;;;;;;;;;;;;15.21;62.23;100158.84;5103822;28;19916;-85
2022/05/23 02:44:08;;;;;;;;;;;;;;;14.91;63.78;100153.75;5104316;27;19924;-86
2022/05/23 02:46:34;;;;;;;;;;;;;;;14.90;64.03;100143.94;5126757;27;20298;-85
2022/05/23 02:49:00;;;;;;;;;;;;;;;14.91;64.10;100142.94;5152949;27;20004;-85
2022/05/23 02:51:25;;;;;;;;;;;;;;;15.01;63.98;100144.41;5119236;27;19926;-85
2022/05/23 02:53:50;;;;;;;;;;;;;;;15.13;63.15;100140.09;5134417;27;19919;-84
2022/05/23 02:56:16;;;;;;;;;;;;;;;15.13;63.19;100140.09;5103136;28;20018;-84
2022/05/23 02:58:41;;;;;;;;;;;;;;;15.05;62.18;100142.97;5102333;27;19994;-84
2022/05/23 03:01:07;;;;;;;;;;;;;;;15.07;62.75;100135.47;5123970;27;20367;-86
2022/05/23 03:03:35;;;;;;;;;;;;;;;15.12;62.54;100133.00;5133673;27;20419;-85
2022/05/23 03:06:00;;;;;;;;;;;;;;;15.18;61.89;100153.84;5143709;27;19923;-85
2022/05/23 03:08:28;;;;;;;;;;;;;;;14.98;62.72;100151.06;5114331;27;20299;-83
2022/05/23 03:10:55;;;;;;;;;;;;;;;14.88;64.54;100143.31;5123735;27;19915;-85
2022/05/23 03:13:20;;;;;;;;;;;;;;;14.83;64.90;100145.78;5134445;27;20456;-83
2022/05/23 03:15:46;;;;;;;;;;;;;;;15.01;64.62;100147.09;5125966;27;19922;-84
2022/05/23 03:18:12;;;;;;;;;;;;;;;15.02;64.96;100159.63;5132818;27;19923;-84
2022/05/23 03:20:37;;;;;;;;;;;;;;;15.13;64.62;100156.34;5142130;27;19919;-84
2022/05/23 03:28:32;;;;;;;;;;;;;;;15.12;64.23;100154.66;5116919;27;19926;-84
2022/05/23 03:30:57;;;;;;;;;;;;;;;15.17;63.69;100152.16;5122860;27;19915;-86
2022/05/23 03:33:23;;;;;;;;;;;;;;;15.24;63.52;100152.19;5134297;27;19915;-84
2022/05/23 03:35:48;;;;;;;;;;;;;;;15.39;63.12;100153.69;5122994;27;19981;-85
2022/05/23 03:38:13;;;;;;;;;;;;;;;15.50;62.48;100159.53;5140880;27;19915;-86
2022/05/23 03:40:39;;;;;;;;;;;;;;;15.59;62.24;100171.84;5130100;27;20009;-86
2022/05/23 03:43:07;;;;;;;;;;;;;;;15.61;61.44;100164.34;5134438;27;19911;-86
2022/05/23 03:45:36;;;;;;;;;;;;;;;15.77;60.54;100168.59;5122192;27;19920;-84
2022/05/23 03:48:03;;;;;;;;;;;;;;;15.84;59.43;100164.00;5135146;27;20387;-84
2022/05/23 03:50:29;;;;;;;;;;;;;;;16.00;58.87;100179.03;5125100;27;19916;-86
2022/05/23 03:52:54;;;;;;;;;;;;;;;16.04;59.06;100188.44;5158403;27;20330;-85
2022/05/23 03:55:21;;;;;;;;;;;;;;;16.04;59.55;100181.13;5130387;27;19923;-84
2022/05/23 03:57:46;;;;;;;;;;;;;;;16.03;59.51;100189.44;5134130;27;19919;-85
2022/05/23 04:00:12;;;;;;;;;;;;;;;15.90;60.47;100193.00;5104645;28;19964;-85
2022/05/23 04:02:37;;;;;;;;;;;;;;;15.93;60.86;100199.88;5136420;27;19907;-84
2022/05/23 04:05:04;;;;;;;;;;;;;;;16.08;60.30;100199.69;5117325;28;20030;-85
2022/05/23 04:07:30;;;;;;;;;;;;;;;16.17;59.79;100199.25;5081126;28;19981;-85
2022/05/23 04:09:55;;;;;;;;;;;;;;;16.28;59.11;100205.13;5116274;27;20646;-85
2022/05/23 04:12:21;;;;;;;;;;;;;;;16.32;59.23;100204.50;5136781;27;19963;-84
2022/05/23 04:14:48;;;;;;;;;;;;;;;16.40;58.69;100187.16;5119264;27;20029;-85
2022/05/23 04:17:14;;;;;;;;;;;;;;;16.45;58.59;100190.06;5110967;27;19951;-84
2022/05/23 04:19:39;;;;;;;;;;;;;;;16.53;58.16;100191.72;5127911;27;19924;-84
2022/05/23 04:22:05;;;;;;;;;;;;;;;16.72;57.22;100193.56;5100420;28;19951;-84
2022/05/23 04:24:30;;;;;;;;;;;;;;;16.82;55.92;100193.97;5105995;27;19942;-84
2022/05/23 04:26:56;;;;;;;;;;;;;;;16.77;55.17;100191.03;5121460;28;19919;-85
2022/05/23 04:29:21;;;;;;;;;;;;;;;16.86;54.75;100188.97;5119195;27;19923;-86
2022/05/23 04:31:46;;;;;;;;;;;;;;;16.90;54.32;100176.63;5124800;27;19942;-86
2022/05/23 04:36:56;;;;;;;;;;;;;;;16.60;55.02;100195.25;5099734;28;19919;-85
2022/05/23 04:39:21;;;;;;;;;;;;;;;16.61;55.16;100205.91;5108065;27;19923;-85
2022/05/23 04:41:49;;;;;;;;;;;;;;;16.76;55.13;100215.69;5155983;27;19987;-85
2022/05/23 04:44:14;;;;;;;;;;;;;;;16.82;54.70;100210.28;5152139;27;19957;-84
2022/05/23 04:49:41;;;;;;;;;;;;;;;16.97;54.24;100218.16;5105742;28;19916;-86
2022/05/23 04:49:49;;;;;;;;;;;;;;;16.98;54.35;100222.56;5111967;27;20332;-84
2022/05/23 04:52:15;;;;;;;;;;;;;;;16.93;54.39;100238.66;5135939;27;19950;-85
2022/05/23 04:54:40;;;;;;;;;;;;;;;17.09;54.16;100238.19;5123853;27;19919;-85
2022/05/23 04:57:06;;;;;;;;;;;;;;;17.20;53.22;100246.72;5131183;27;19915;-86
2022/05/23 04:59:35;;;;;;;;;;;;;;;17.42;52.57;100248.09;5116735;27;20393;-85
2022/05/23 05:02:01;;;;;;;;;;;;;;;17.85;51.30;100236.59;5144249;27;20041;-87
2022/05/23 05:04:26;;;;;;;;;;;;;;;18.09;50.41;100236.84;5137858;27;19923;-86
2022/05/23 05:06:52;;;;;;;;;;;;;;;18.44;49.71;100239.06;5118251;27;19915;-85
2022/05/23 05:09:17;;;;;;;;;;;;;;;18.58;48.99;100243.34;5120448;27;19919;-85
2022/05/23 05:11:44;;;;;;;;;;;;;;;18.77;48.46;100238.78;5127526;27;19911;-86
2022/05/23 05:14:09;;;;;;;;;;;;;;;18.87;48.10;100239.13;5133348;27;19925;-86
2022/05/23 05:16:36;;;;;;;;;;;;;;;19.14;47.89;100250.53;5105013;28;20026;-86
2022/05/23 05:19:05;;;;;;;;;;;;;;;19.42;47.03;100246.44;5121255;27;20439;-85
2022/05/23 05:21:30;;;;;;;;;;;;;;;19.60;46.53;100238.22;5105528;28;19915;-85
2022/05/23 05:23:55;;;;;;;;;;;;;;;19.51;46.92;100238.78;5123370;27;20401;-86
2022/05/23 05:26:21;;;;;;;;;;;;;;;19.59;46.56;100241.19;5112959;27;19915;-86
2022/05/23 05:28:47;;;;;;;;;;;;;;;19.67;46.08;100242.78;5136479;27;20375;-85
2022/05/23 05:31:25;;;;;;;;;;;;;;;19.71;45.88;100241.25;5127417;27;19931;-84
2022/05/23 05:33:52;;;;;;;;;;;;;;;19.61;46.33;100239.88;5102544;27;19938;-85
2022/05/23 05:36:23;;;;;;;;;;;;;;;19.75;46.03;100239.72;5113057;28;19915;-86
2022/05/23 05:38:51;;;;;;;;;;;;;;;19.88;46.15;100233.25;5101347;27;19920;-85
2022/05/23 05:41:24;;;;;;;;;;;;;;;20.07;45.92;100236.75;5127017;27;19915;-87
2022/05/23 05:43:51;;;;;;;;;;;;;;;20.24;44.89;100243.19;5133440;27;19976;-86
2022/05/23 05:46:22;;;;;;;;;;;;;;;20.27;44.49;100242.72;5111539;27;19915;-85
2022/05/23 05:48:47;;;;;;;;;;;;;;;20.40;44.91;100247.97;5116878;27;19919;-87
2022/05/23 05:51:13;;;;;;;;;;;;;;;20.89;43.96;100244.22;5138086;27;19921;-86
2022/05/23 05:53:39;;;;;;;;;;;;;;;21.27;42.33;100244.47;5152547;27;19915;-86
2022/05/23 05:56:04;;;;;;;;;;;;;;;21.58;41.30;100245.13;5116146;27;19958;-86
2022/05/23 05:58:31;;;;;;;;;;;;;;;21.70;41.01;100256.88;5146302;27;19915;-87
2022/05/23 06:00:56;;;;;;;;;;;;;;;21.80;40.41;100249.94;5131946;27;19915;-86
2022/05/23 06:03:21;;;;;;;;;;;;;;;21.86;40.37;100248.94;5115913;27;20366;-88
2022/05/23 06:11:24;;;;;;;;;;;;;;;22.33;37.72;100240.47;5128928;27;19971;-86
2022/05/23 06:13:53;;;;;;;;;;;;;;;22.51;37.55;100256.66;5117972;27;20011;-87
2022/05/23 06:16:19;;;;;;;;;;;;;;;22.41;37.86;100242.81;5145279;27;20302;-86
2022/05/23 06:18:45;;;;;;;;;;;;;;;22.24;37.95;100250.16;5117096;27;19924;-86
2022/05/23 06:21:13;;;;;;;;;;;;;;;22.27;37.91;100255.16;5105259;28;19943;-87
2022/05/23 06:23:39;;;;;;;;;;;;;;;22.25;38.27;100257.31;5098105;27;19943;-87
2022/05/23 06:26:05;;;;;;;;;;;;;;;22.43;38.33;100265.31;5105462;28;20468;-86
2022/05/23 06:28:30;;;;;;;;;;;;;;;22.40;38.59;100254.81;5096524;27;20372;-87
2022/05/23 06:30:57;;;;;;;;;;;;;;;22.65;38.06;100253.56;5104348;28;19916;-86
2022/05/23 06:33:22;;;;;;;;;;;;;;;23.00;38.02;100255.22;5095264;28;19955;-87
2022/05/23 06:35:48;;;;;;;;;;;;;;;22.54;38.29;100249.84;5106762;27;20664;-86
2022/05/23 06:38:16;;;;;;;;;;;;;;;23.03;37.68;100257.44;5155256;27;19919;-86
2022/05/23 06:40:42;;;;;;;;;;;;;;;23.49;37.05;100252.53;5112284;27;19919;-86
2022/05/23 06:43:07;;;;;;;;;;;;;;;24.06;35.73;100254.00;5115726;27;19964;-85
2022/05/23 06:45:32;;;;;;;;;;;;;;;24.51;35.41;100247.25;5127100;27;19919;-87
2022/05/23 06:47:59;;;;;;;;;;;;;;;25.05;34.64;100250.66;5115758;27;20380;-87
2022/05/23 06:50:24;;;;;;;;;;;;;;;25.26;33.97;100245.25;5125998;27;19946;-88
2022/05/23 06:52:54;;;;;;;;;;;;;;;25.19;33.93;100251.03;5101176;27;19916;-86
2022/05/23 06:55:19;;;;;;;;;;;;;;;25.72;33.71;100256.41;5124090;27;19927;-87
2022/05/23 06:57:45;;;;;;;;;;;;;;;25.55;32.09;100253.09;5115879;27;20010;-88
2022/05/23 07:00:10;;;;;;;;;;;;;;;25.54;31.91;100254.16;5108777;27;20010;-86
2022/05/23 07:02:36;;;;;;;;;;;;;;;25.32;32.15;100238.69;5120770;27;19923;-85
2022/05/23 07:13:28;;;;;;;;;;;;;;;25.89;31.50;100240.53;5116545;27;20415;-87
2022/05/23 07:15:53;;;;;;;;;;;;;;;26.03;31.32;100248.25;5122908;27;19919;-87
2022/05/23 07:18:22;;;;;;;;;;;;;;;26.15;31.84;100240.53;5111494;28;19962;-86
2022/05/23 07:20:47;;;;;;;;;;;;;;;26.27;31.51;100241.09;5118379;27;20071;-87
2022/05/23 07:23:14;;;;;;;;;;;;;;;26.14;31.30;100252.66;5132105;27;20379;-86
2022/05/23 07:25:39;;;;;;;;;;;;;;;26.29;31.31;100243.56;5099529;28;19916;-86
2022/05/23 07:28:05;;;;;;;;;;;;;;;26.55;31.13;100249.94;5113874;27;19919;-87
2022/05/23 07:30:32;;;;;;;;;;;;;;;26.88;30.07;100251.28;5127499;27;20017;-85
2022/05/23 07:32:57;;;;;;;;;;;;;;;26.66;30.51;100251.56;5114634;27;19926;-87
2022/05/23 07:35:26;;;;;;;;;;;;;;;26.87;31.05;100252.34;5107685;27;20006;-87
2022/05/23 07:37:58;;;;;;;;;;;;;;;26.69;31.45;100256.53;5112934;28;20022;-87
2022/05/23 07:40:26;;;;;;;;;;;;;;;26.92;31.39;100257.03;5109612;27;19919;-86
2022/05/23 07:42:55;;;;;;;;;;;;;;;27.11;30.89;100258.09;5116223;27;19916;-88
2022/05/23 07:45:20;;;;;;;;;;;;;;;26.16;33.11;100267.00;5129107;27;19943;-87
2022/05/23 07:47:46;;;;;;;;;;;;;;;25.63;34.42;100272.63;5114881;28;20382;-85
2022/05/23 07:50:16;;;;;;;;;;;;;;;25.34;35.79;100271.44;5123162;27;19923;-87
2022/05/23 08:00:30;;;;;;;;;;;;;;;24.60;39.04;100271.22;5130899;27;20420;-85
2022/05/23 08:00:57;;;;;;;;;;;;;;;24.06;42.54;100274.03;5126330;28;19963;-86
2022/05/23 08:03:22;;;;;;;;;;;;;;;23.38;43.05;100266.13;5097235;28;19923;-87
2022/05/23 08:05:48;;;;;;;;;;;;;;;23.20;43.64;100279.31;5121515;28;20026;-85
2022/05/23 08:08:13;;;;;;;;;;;;;;;23.38;42.95;100279.84;5094208;28;20014;-86
2022/05/23 08:10:39;;;;;;;;;;;;;;;23.69;42.32;100280.19;5122641;27;20073;-85
2022/05/23 08:13:09;;;;;;;;;;;;;;;23.86;41.49;100282.91;5114861;28;19951;-86
2022/05/23 08:15:34;;;;;;;;;;;;;;;24.18;40.79;100280.19;5126135;27;19954;-87
2022/05/23 08:18:02;;;;;;;;;;;;;;;24.06;41.04;100293.25;5114956;28;19938;-87
2022/05/23 08:20:28;;;;;;;;;;;;;;;22.82;43.85;100290.00;5099807;28;19946;-86
2022/05/23 08:22:55;;;;;;;;;;;;;;;22.97;44.02;100289.41;5134021;27;19912;-86
2022/05/23 08:25:21;;;;;;;;;;;;;;;22.92;44.49;100279.19;5121487;27;20031;-86
2022/05/23 08:27:46;;;;;;;;;;;;;;;22.76;44.90;100280.06;5115723;27;19987;-87
2022/05/23 08:30:12;;;;;;;;;;;;;;;22.99;44.77;100283.69;5125129;27;19927;-85
2022/05/23 08:32:37;;;;;;;;;;;;;;;23.32;43.75;100283.63;5133868;27;20026;-88
2022/05/23 08:35:03;;;;;;;;;;;;;;;23.61;43.17;100280.66;5105602;28;19920;-87
2022/05/23 08:37:29;;;;;;;;;;;;;;;23.00;44.55;100268.91;5131058;27;20006;-86
2022/05/23 08:39:55;;;;;;;;;;;;;;;22.84;45.01;100276.06;5130042;27;19963;-87
2022/05/23 08:42:27;;;;;;;;;;;;;;;22.42;46.14;100291.00;5102387;28;19915;-86
2022/05/23 08:45:00;;;;;;;;;;;;;;;21.91;47.54;100281.84;5117834;27;20456;-88
2022/05/23 08:47:45;;;;;;;;;;;;;;;22.13;47.07;100291.03;5130689;27;19915;-86
2022/05/23 08:50:14;;;;;;;;;;;;;;;21.90;47.38;100293.88;5125778;27;19915;-85
2022/05/23 08:52:47;;;;;;;;;;;;;;;22.37;46.70;100304.63;5119772;27;20413;-85
2022/05/23 08:55:15;;;;;;;;;;;;;;;23.46;44.53;100297.78;5104819;28;19971;-86
2022/05/23 08:57:50;;;;;;;;;;;;;;;24.11;43.38;100298.78;5142912;27;19916;-86
2022/05/23 09:00:16;;;;;;;;;;;;;;;24.52;42.24;100296.47;5125301;27;19923;-86
2022/05/23 09:02:46;;;;;;;;;;;;;;;24.62;42.12;100292.97;5132804;27;19923;-86
2022/05/23 09:05:12;;;;;;;;;;;;;;;24.71;41.66;100304.31;5128275;27;20104;-87
2022/05/23 09:07:47;;;;;;;;;;;;;;;24.20;42.96;100310.97;5123434;27;19943;-87
2022/05/23 09:10:24;;;;;;;;;;;;;;;24.37;41.52;100301.78;5125261;27;19916;-86
2022/05/23 09:12:50;;;;;;;;;;;;;;;24.17;42.97;100311.50;5133475;27;20403;-87
2022/05/23 09:15:16;;;;;;;;;;;;;;;25.65;40.14;100305.41;5129935;27;19959;-88
2022/05/23 09:17:43;;;;;;;;;;;;;;;25.94;39.28;100300.28;5119128;27;19926;-87
2022/05/23 09:20:16;;;;;;;;;;;;;;;25.93;39.61;100309.66;5126891;27;19991;-87
2022/05/23 09:22:48;;;;;;;;;;;;;;;26.59;38.64;100297.88;5103126;28;20058;-87
2022/05/23 09:25:18;;;;;;;;;;;;;;;26.53;38.30;100319.09;5124003;27;19985;-86
2022/05/23 09:27:46;;;;;;;;;;;;;;;26.60;38.79;100304.22;5120415;27;19955;-86
2022/05/23 09:30:12;;;;;;;;;;;;;;;26.04;38.95;100307.75;5122868;27;19999;-86
2022/05/23 09:32:49;;;;;;;;;;;;;;;26.57;38.20;100307.53;5154042;27;19926;-87
2022/05/23 09:35:19;;;;;;;;;;;;;;;28.34;35.15;100307.19;5106545;28;19920;-85
2022/05/23 09:37:46;;;;;;;;;;;;;;;28.91;33.49;100298.44;5115686;27;20359;-85
2022/05/23 09:40:21;;;;;;;;;;;;;;;26.76;37.48;100305.06;5104661;28;20058;-85
2022/05/23 09:48:16;;;;;;;;;;;;;;;27.47;36.51;100304.91;5099829;28;19923;-85
2022/05/23 09:50:44;;;;;;;;;;;;;;;27.60;36.39;100302.66;5109398;27;19923;-85
2022/05/23 09:53:14;;;;;;;;;;;;;;;25.96;38.72;100308.28;5099104;27;19915;-86
2022/05/23 09:55:39;;;;;;;;;;;;;;;24.25;42.43;100301.13;5129298;27;20382;-86
2022/05/23 09:58:05;;;;;;;;;;;;;;;24.16;42.70;100309.00;5111838;27;19915;-86
2022/05/23 10:00:39;;;;;;;;;;;;;;;23.23;44.61;100311.75;5105988;28;19920;-86
2022/05/23 10:03:06;;;;;;;;;;;;;;;22.74;45.88;100315.09;5096937;28;19980;-86
2022/05/23 10:05:33;;;;;;;;;;;;;;;22.36;46.64;100324.88;5102180;27;20336;-86
2022/05/23 10:08:02;;;;;;;;;;;;;;;22.00;47.37;100326.09;5107881;28;19916;-87
2022/05/23 10:10:28;;;;;;;;;;;;;;;21.44;48.86;100328.53;5127548;27;19919;-84
2022/05/23 10:13:12;;;;;;;;;;;;;;;21.17;49.56;100329.00;5104783;27;20014;-86
2022/05/23 10:15:45;;;;;;;;;;;;;;;20.96;50.27;100329.63;5148679;27;19919;-86
2022/05/23 10:18:20;;;;;;;;;;;;;;;20.45;50.83;100327.25;5118618;27;19938;-85
2022/05/23 10:20:47;;;;;;;;;;;;;;;20.55;51.50;100325.84;5106517;27;19923;-83
2022/05/23 10:23:14;;;;;;;;;;;;;;;20.57;51.44;100335.50;5120993;27;20366;-85
2022/05/23 10:25:41;;;;;;;;;;;;;;;20.79;50.99;100332.19;5103990;27;19920;-86
2022/05/23 10:28:11;;;;;;;;;;;;;;;20.42;51.67;100333.19;5136123;27;19964;-85
2022/05/23 10:30:37;;;;;;;;;;;;;;;20.62;51.60;100330.16;5111713;27;20112;-85
2022/05/23 10:33:04;;;;;;;;;;;;;;;20.76;51.55;100333.50;5097252;27;19954;-86
2022/05/23 10:35:31;;;;;;;;;;;;;;;20.41;51.99;100336.97;5097342;28;20296;-86
2022/05/23 10:42:07;;;;;;;;;;;;;;;20.30;52.28;100339.66;5135922;27;19923;-87
2022/05/23 10:43:31;;;;;;;;;;;;;;;19.83;54.33;100337.63;5118194;27;19921;-85
2022/05/23 10:45:59;;;;;;;;;;;;;;;20.08;54.21;100333.91;5126517;27;19998;-87
2022/05/23 10:48:44;;;;;;;;;;;;;;;20.46;53.91;100336.28;5115505;27;19915;-84
2022/05/23 10:51:21;;;;;;;;;;;;;;;20.43;54.80;100332.13;5136873;27;19942;-85
2022/05/23 10:53:59;;;;;;;;;;;;;;;20.18;56.35;100339.63;5115587;27;19923;-86
2022/05/23 10:56:32;;;;;;;;;;;;;;;20.60;55.68;100342.38;5119446;27;19915;-86
2022/05/23 10:58:58;;;;;;;;;;;;;;;20.95;54.68;100352.53;5125759;27;19960;-87
2022/05/23 11:01:23;;;;;;;;;;;;;;;20.32;56.32;100353.94;5128382;27;20041;-85
2022/05/23 11:04:07;;;;;;;;;;;;;;;20.86;55.18;100344.69;5152761;27;19923;-85
2022/05/23 11:06:40;;;;;;;;;;;;;;;21.49;53.43;100343.16;5111267;27;19914;-86
2022/05/23 11:09:24;;;;;;;;;;;;;;;21.22;54.25;100336.50;5138724;27;19919;-86
2022/05/23 11:11:56;;;;;;;;;;;;;;;21.90;51.55;100343.97;5145695;27;19941;-85
2022/05/23 11:14:47;;;;;;;;;;;;;;;22.46;50.10;100348.88;5117979;27;19923;-85
2022/05/23 11:17:22;;;;;;;;;;;;;;;21.89;50.13;100346.94;5100036;27;19923;-86
2022/05/23 11:19:53;;;;;;;;;;;;;;;21.28;50.86;100336.38;5155322;27;19959;-85
2022/05/23 11:22:20;;;;;;;;;;;;;;;21.60;50.21;100338.72;5145526;27;19927;-85
2022/05/23 11:24:58;;;;;;;;;;;;;;;21.92;48.93;100336.34;5120830;27;19965;-83
2022/05/23 11:35:41;;;;;;;;;;;;;;;20.92;52.02;100331.16;5125093;27;19922;-83
2022/05/23 11:38:07;;;;;;;;;;;;;;;20.75;54.99;100331.84;5118915;27;19962;-85
2022/05/23 11:40:38;;;;;;;;;;;;;;;19.75;57.61;100333.28;5120429;27;20331;-83
2022/05/23 11:43:13;;;;;;;;;;;;;;;19.66;62.58;100345.53;5093704;28;19928;-86
2022/05/23 11:45:57;;;;;;;;;;;;;;;19.79;61.64;100339.97;5110087;27;19942;-86
2022/05/23 11:48:31;;;;;;;;;;;;;;;19.81;61.73;100337.00;5119884;27;19926;-86
2022/05/23 11:50:57;;;;;;;;;;;;;;;19.80;61.33;100325.25;5147482;27;20038;-85
2022/05/23 11:53:23;;;;;;;;;;;;;;;20.27;61.01;100318.31;5098080;27;19924;-86
2022/05/23 11:55:53;;;;;;;;;;;;;;;20.73;58.10;100324.97;5117603;27;19919;-85
2022/05/23 11:58:18;;;;;;;;;;;;;;;21.19;58.28;100318.66;5132580;28;19927;-86
2022/05/23 12:01:00;;;;;;;;;;;;;;;21.05;57.03;100314.53;5133182;27;19959;-84
2022/05/23 12:03:25;;;;;;;;;;;;;;;21.07;56.47;100324.16;5135440;27;19915;-85
2022/05/23 12:06:13;;;;;;;;;;;;;;;20.47;57.43;100329.75;5110805;27;19917;-86
2022/05/23 12:08:39;;;;;;;;;;;;;;;19.92;57.88;100322.56;5132964;27;19919;-85
2022/05/23 12:11:19;;;;;;;;;;;;;;;20.32;56.86;100318.44;5152705;27;19969;-84
2022/05/23 12:13:49;;;;;;;;;;;;;;;20.43;56.51;100320.38;5115834;27;19922;-86
2022/05/23 12:16:22;;;;;;;;;;;;;;;20.61;55.86;100331.25;5113205;27;19923;-85
2022/05/23 12:18:48;;;;;;;;;;;;;;;20.85;54.82;100337.56;5115494;27;19926;-85
2022/05/23 12:21:32;;;;;;;;;;;;;;;21.38;54.43;100332.19;5112047;27;20391;-85
2022/05/23 12:24:30;;;;;;;;;;;;;;;21.28;52.75;100336.38;5137616;27;19919;-86
2022/05/23 12:27:02;;;;;;;;;;;;;;;21.14;53.61;100342.31;5080101;27;19930;-84
2022/05/23 12:29:34;;;;;;;;;;;;;;;20.76;54.07;100354.53;5126709;28;19920;-86
2022/05/23 12:32:18;;;;;;;;;;;;;;;20.54;53.79;100351.50;5117218;27;20463;-86
2022/05/23 12:34:48;;;;;;;;;;;;;;;20.79;53.70;100343.97;5146864;27;20440;-83
2022/05/23 12:37:15;;;;;;;;;;;;;;;20.82;53.02;100345.41;5112075;28;20019;-85
2022/05/23 12:39:53;;;;;;;;;;;;;;;20.11;53.68;100342.50;5093876;27;19915;-84
2022/05/23 12:42:24;;;;;;;;;;;;;;;20.35;53.77;100354.31;5108201;28;19916;-83
2022/05/23 12:44:52;;;;;;;;;;;;;;;19.96;53.89;100355.69;5112101;27;20007;-84
2022/05/23 12:47:37;;;;;;;;;;;;;;;19.45;55.35;100359.63;5136372;27;19964;-85
2022/05/23 12:50:14;;;;;;;;;;;;;;;19.14;57.16;100358.69;5154422;27;19969;-84
2022/05/23 12:52:46;;;;;;;;;;;;;;;19.03;57.91;100343.09;5139069;27;19915;-84
2022/05/23 12:55:30;;;;;;;;;;;;;;;19.09;58.15;100339.47;5150756;27;19979;-85
2022/05/23 12:58:13;;;;;;;;;;;;;;;19.23;57.79;100351.91;5140638;27;19958;-84
2022/05/23 13:01:05;;;;;;;;;;;;;;;19.13;58.28;100346.97;5148630;27;19916;-85
2022/05/23 13:03:44;;;;;;;;;;;;;;;18.90;58.90;100353.06;5140842;27;19923;-84
2022/05/23 13:06:12;;;;;;;;;;;;;;;18.58;59.89;100356.84;5133142;27;19915;-82
2022/05/23 13:08:45;;;;;;;;;;;;;;;18.28;60.46;100365.63;5134846;27;19916;-83
2022/05/23 13:11:30;;;;;;;;;;;;;;;18.19;61.43;100373.25;5138738;27;19911;-83
2022/05/23 13:13:58;;;;;;;;;;;;;;;17.96;62.72;100378.34;5146146;27;19923;-83
2022/05/23 13:16:29;;;;;;;;;;;;;;;17.97;60.57;100385.47;5112757;28;19963;-85
2022/05/23 13:27:08;;;;;;;;;;;;;;;18.52;60.59;100392.06;5125066;27;19974;-85
2022/05/23 13:29:34;;;;;;;;;;;;;;;18.82;59.59;100385.19;5148494;27;19924;-84
2022/05/23 13:32:01;;;;;;;;;;;;;;;19.18;58.40;100377.09;5121915;27;19923;-87
2022/05/23 13:34:33;;;;;;;;;;;;;;;19.37;57.30;100388.03;5131439;27;20375;-84
2022/05/23 13:36:58;;;;;;;;;;;;;;;19.64;56.34;100395.91;5124084;27;20375;-84
2022/05/23 13:39:24;;;;;;;;;;;;;;;19.83;55.80;100397.63;5131331;27;19980;-85
2022/05/23 13:41:49;;;;;;;;;;;;;;;19.26;57.49;100396.94;5107922;27;19916;-84
2022/05/23 13:44:21;;;;;;;;;;;;;;;19.72;56.52;100401.13;5100897;27;19924;-85